createdAt,value
2018-02-06T04:40:16.585Z,90.00
2018-02-06T04:42:50.347Z,90.20
2018-02-06T04:45:24.204Z,89.60
2018-02-06T04:47:58.050Z,89.40
2018-02-06T04:50:39.143Z,89.80
2018-02-06T04:53:12.936Z,89.00
2018-02-06T04:55:46.819Z,88.90
2018-02-06T04:58:35.439Z,89.00
2018-02-06T05:01:09.951Z,88.80
2018-02-06T05:03:43.703Z,88.80
2018-02-06T05:06:17.423Z,88.40
2018-02-06T05:08:52.014Z,88.70
2018-02-06T05:11:25.859Z,88.70
2018-02-06T05:13:59.663Z,88.80
2018-02-06T05:16:34.743Z,89.00
2018-02-06T05:19:08.434Z,88.60
2018-02-06T05:21:42.315Z,88.90
2018-02-06T05:24:16.116Z,88.90
2018-02-06T05:26:49.832Z,88.90
2018-02-06T05:29:23.720Z,88.70
2018-02-06T05:31:58.407Z,89.20
2018-02-06T05:34:32.998Z,89.30
2018-02-06T05:37:06.851Z,89.30
2018-02-06T05:39:40.680Z,89.10
2018-02-06T05:42:14.515Z,89.90
2018-02-06T05:44:48.283Z,89.80
2018-02-06T05:47:22.071Z,89.80
2018-02-06T05:49:56.693Z,89.50
2018-02-06T05:52:30.479Z,89.50
2018-02-06T05:55:04.307Z,89.40
2018-02-06T05:57:41.291Z,89.30
2018-02-06T06:00:19.219Z,89.80
2018-02-06T06:02:53.406Z,89.80
2018-02-06T06:05:27.028Z,89.50
2018-02-06T06:08:00.955Z,89.40
2018-02-06T06:10:34.731Z,89.10
2018-02-06T06:13:09.308Z,89.60
2018-02-06T06:15:43.116Z,89.50
2018-02-06T06:18:18.458Z,89.60
2018-02-06T06:20:52.332Z,89.60
2018-02-06T06:23:26.105Z,89.80
2018-02-06T06:26:03.598Z,89.70
2018-02-06T06:28:37.421Z,90.00
2018-02-06T06:31:11.208Z,89.40
2018-02-06T06:33:45.008Z,89.60
2018-02-06T06:36:19.613Z,89.90
2018-02-06T06:38:53.440Z,90.10
2018-02-06T06:41:29.849Z,90.30
2018-02-06T06:44:04.130Z,90.20
2018-02-06T06:46:39.504Z,90.20
2018-02-06T06:49:13.268Z,90.20
2018-02-06T06:51:47.116Z,89.30
2018-02-06T06:54:22.671Z,90.00
2018-02-06T06:56:56.463Z,89.90
2018-02-06T06:59:30.934Z,89.80
2018-02-06T07:02:04.776Z,89.80
2018-02-06T07:04:38.541Z,90.00
2018-02-06T07:07:12.337Z,90.00
2018-02-06T07:09:46.776Z,89.60
2018-02-06T07:12:20.900Z,89.60
2018-02-06T07:14:55.392Z,90.00
2018-02-06T07:17:30.273Z,89.10
2018-02-06T07:20:04.197Z,89.10
2018-02-06T07:22:37.966Z,89.40
2018-02-06T07:25:11.743Z,89.60
2018-02-06T07:27:46.400Z,89.30
2018-02-06T07:30:20.120Z,89.90
2018-02-06T07:32:53.935Z,89.10
2018-02-06T07:35:28.710Z,89.00
2018-02-06T07:38:02.584Z,89.20
2018-02-06T07:40:36.241Z,89.40
2018-02-06T07:43:10.044Z,89.60
2018-02-06T07:45:44.577Z,88.40
2018-02-06T07:48:18.419Z,88.40
2018-02-06T07:50:52.125Z,88.20
2018-02-06T07:53:25.828Z,88.20
2018-02-06T07:55:59.595Z,88.50
2018-02-06T07:58:34.135Z,87.50
2018-02-06T08:01:07.911Z,87.50
2018-02-06T08:03:41.732Z,88.30
2018-02-06T08:06:15.505Z,87.80
2018-02-06T08:08:50.069Z,87.80
2018-02-06T08:11:24.738Z,88.40
2018-02-06T08:13:58.559Z,88.40
2018-02-06T08:16:32.194Z,88.40
2018-02-06T08:19:06.037Z,87.30
2018-02-06T08:21:40.724Z,87.80
2018-02-06T08:24:14.534Z,87.70
2018-02-06T08:26:48.353Z,87.30
2018-02-06T08:29:23.102Z,87.10
2018-02-06T08:31:56.912Z,87.10
2018-02-06T08:34:30.715Z,86.80
2018-02-06T08:37:04.466Z,86.80
2018-02-06T08:39:38.372Z,86.40
2018-02-06T08:42:12.151Z,86.50
2018-02-06T08:44:45.972Z,86.60
2018-02-06T08:47:20.513Z,86.20
2018-02-06T08:49:55.616Z,86.30
2018-02-06T08:52:29.387Z,85.40
2018-02-06T08:55:03.824Z,82.60
2018-02-06T08:57:37.471Z,82.60
2018-02-06T09:00:12.042Z,80.70
2018-02-06T09:02:45.914Z,80.70
2018-02-06T09:05:19.768Z,80.10
2018-02-06T09:07:53.555Z,77.40
2018-02-06T09:10:29.299Z,76.90
2018-02-06T09:13:03.347Z,77.80
2018-02-06T09:15:37.268Z,77.00
2018-02-06T09:18:11.821Z,74.30
2018-02-06T09:20:46.347Z,76.20
2018-02-06T09:23:20.083Z,75.50
2018-02-06T09:25:53.818Z,75.60
2018-02-06T09:28:28.512Z,76.70
2018-02-06T09:31:02.274Z,76.70
2018-02-06T09:33:36.062Z,77.40
2018-02-06T09:36:09.737Z,76.90
2018-02-06T09:38:45.452Z,77.30
2018-02-06T09:41:19.299Z,77.50
2018-02-06T09:43:53.910Z,76.90
2018-02-06T09:46:27.695Z,76.50
2018-02-06T09:49:02.135Z,75.80
2018-02-06T09:51:36.012Z,75.80
2018-02-06T09:54:10.535Z,76.80
2018-02-06T09:56:45.084Z,77.20
2018-02-06T09:59:19.104Z,77.20
2018-02-06T10:01:53.588Z,77.10
2018-02-06T10:04:27.468Z,77.00
2018-02-06T10:07:01.213Z,77.90
2018-02-06T10:09:36.052Z,77.40
2018-02-06T10:12:10.690Z,76.50
2018-02-06T10:14:44.587Z,76.50
2018-02-06T10:17:18.420Z,76.20
2018-02-06T10:19:53.079Z,76.40
2018-02-06T10:22:26.732Z,76.70
2018-02-06T10:25:00.505Z,75.90
2018-02-06T10:27:34.369Z,75.70
2018-02-06T10:30:09.982Z,74.30
2018-02-06T10:32:43.703Z,74.30
2018-02-06T10:35:17.492Z,74.30
2018-02-06T10:37:52.383Z,72.70
2018-02-06T10:40:26.192Z,72.70
2018-02-06T10:43:00.024Z,71.70
2018-02-06T10:45:33.871Z,72.40
2018-02-06T10:48:08.359Z,73.00
2018-02-06T10:50:42.896Z,73.30
2018-02-06T10:53:16.698Z,73.20
2018-02-06T10:55:50.512Z,73.40
2018-02-06T10:58:24.755Z,72.70
2018-02-06T11:00:58.519Z,71.60
2018-02-06T11:03:36.194Z,68.60
2018-02-06T11:06:10.652Z,63.30
2018-02-06T11:08:44.728Z,63.20
2018-02-06T11:11:19.171Z,60.30
2018-02-06T11:13:53.378Z,60.30
2018-02-06T11:16:27.252Z,62.40
2018-02-06T11:19:01.230Z,64.70
2018-02-06T11:21:35.031Z,64.60
2018-02-06T11:24:09.828Z,66.20
2018-02-06T11:26:44.365Z,65.20
2018-02-06T11:29:20.248Z,65.20
2018-02-06T11:31:54.215Z,65.70
2018-02-06T11:34:29.473Z,64.50
2018-02-06T11:37:03.599Z,64.40
2018-02-06T11:39:37.752Z,65.70
2018-02-06T11:42:14.200Z,67.20
2018-02-06T11:44:48.349Z,67.10
2018-02-06T11:47:24.668Z,65.90
2018-02-06T11:49:58.920Z,65.90
2018-02-06T11:52:33.466Z,66.20
2018-02-06T11:55:09.948Z,67.20
2018-02-06T11:57:43.754Z,68.70
2018-02-06T12:00:17.555Z,70.20
2018-02-06T12:02:53.516Z,70.40
2018-02-06T12:05:27.380Z,70.80
2018-02-06T12:08:01.279Z,69.60
2018-02-06T12:10:35.000Z,67.80
2018-02-06T12:13:09.726Z,68.30
2018-02-06T12:15:44.355Z,68.30
2018-02-06T12:18:18.148Z,69.20
2018-02-06T12:20:51.878Z,70.00
2018-02-06T12:23:25.716Z,69.90
2018-02-06T12:25:59.492Z,70.90
2018-02-06T12:28:34.339Z,71.40
2018-02-06T12:31:08.120Z,71.50
2018-02-06T12:33:41.940Z,72.00
2018-02-06T12:36:15.536Z,72.10
2018-02-06T12:38:49.427Z,71.70
2018-02-06T12:41:23.864Z,71.60
2018-02-06T12:43:57.593Z,71.50
2018-02-06T12:46:31.314Z,70.90
2018-02-06T12:49:05.934Z,72.00
2018-02-06T12:51:40.509Z,72.00
2018-02-06T12:54:14.685Z,72.50
2018-02-06T12:56:49.200Z,73.30
2018-02-06T12:59:23.590Z,73.80
2018-02-06T13:01:57.326Z,73.80
2018-02-06T13:04:31.109Z,73.50
2018-02-06T13:07:04.699Z,73.80
2018-02-06T13:09:39.374Z,74.30
2018-02-06T13:12:13.107Z,74.20
2018-02-06T13:14:47.676Z,73.60
2018-02-06T13:17:21.375Z,73.60
2018-02-06T13:19:55.330Z,74.00
2018-02-06T13:22:29.888Z,72.80
2018-02-06T13:25:03.715Z,72.70
2018-02-06T13:27:37.553Z,72.50
2018-02-06T13:30:12.175Z,72.60
2018-02-06T13:32:48.613Z,72.10
2018-02-06T13:35:22.435Z,72.20
2018-02-06T13:37:56.256Z,72.00
2018-02-06T13:40:30.802Z,72.20
2018-02-06T13:43:06.337Z,72.30
2018-02-06T13:45:39.999Z,72.10
2018-02-06T13:48:13.790Z,72.40
2018-02-06T13:50:47.693Z,72.80
2018-02-06T13:53:21.471Z,73.60
2018-02-06T13:55:55.242Z,73.80
2018-02-06T13:58:28.979Z,74.10
2018-02-06T14:01:03.728Z,75.30
2018-02-06T14:03:38.291Z,74.10
2018-02-06T14:06:11.935Z,74.10
2018-02-06T14:08:45.737Z,74.30
2018-02-06T14:11:19.463Z,75.10
2018-02-06T14:13:53.149Z,74.80
2018-02-06T14:16:26.933Z,74.20
2018-02-06T14:19:00.634Z,74.50
2018-02-06T14:21:34.428Z,74.10
2018-02-06T14:24:08.268Z,73.00
2018-02-06T14:26:42.027Z,73.60
2018-02-06T14:29:15.884Z,73.50
2018-02-06T14:31:50.323Z,73.30
2018-02-06T14:34:24.209Z,73.20
2018-02-06T14:36:58.767Z,74.80
2018-02-06T14:39:33.231Z,74.80
2018-02-06T14:42:07.723Z,74.40
2018-02-06T14:44:43.975Z,75.30
2018-02-06T14:47:17.604Z,75.30
2018-02-06T14:49:51.417Z,75.60
2018-02-06T14:52:25.180Z,74.70
2018-02-06T14:54:59.744Z,74.90
2018-02-06T14:57:33.548Z,74.80
2018-02-06T15:00:07.365Z,74.50
2018-02-06T15:02:40.999Z,74.60
2018-02-06T15:05:14.799Z,74.50
2018-02-06T15:07:48.578Z,74.00
2018-02-06T15:10:23.195Z,75.50
2018-02-06T15:12:56.852Z,75.40
2018-02-06T15:15:30.677Z,75.90
2018-02-06T15:18:05.216Z,75.20
2018-02-06T15:20:38.936Z,75.20
2018-02-06T15:23:14.243Z,75.80
2018-02-06T15:25:48.140Z,75.80
2018-02-06T15:28:21.997Z,76.10
2018-02-06T15:30:56.696Z,76.20
2018-02-06T15:33:30.544Z,75.90
2018-02-06T15:36:05.153Z,77.20
2018-02-06T15:38:40.998Z,76.80
2018-02-06T15:41:17.773Z,77.60
2018-02-06T15:43:53.319Z,78.50
2018-02-06T15:46:29.686Z,78.50
2018-02-06T15:49:04.824Z,77.40
2018-02-06T15:51:40.369Z,77.40
2018-02-06T15:54:20.277Z,78.10
2018-02-06T15:56:58.339Z,78.30
2018-02-06T15:59:35.123Z,78.30
2018-02-06T16:02:09.235Z,79.30
2018-02-06T16:04:46.828Z,79.20
2018-02-06T16:07:24.990Z,79.40
2018-02-06T16:10:01.169Z,79.40
2018-02-06T16:12:37.721Z,80.00
2018-02-06T16:15:12.776Z,80.10
2018-02-06T16:17:49.246Z,79.90
2018-02-06T16:20:25.511Z,79.80
2018-02-06T16:23:01.565Z,80.50
2018-02-06T16:25:37.827Z,81.10
2018-02-06T16:28:16.977Z,81.20
2018-02-06T16:30:52.200Z,81.80
2018-02-06T16:33:32.211Z,82.10
2018-02-06T16:36:09.025Z,81.30
2018-02-06T16:38:47.336Z,82.20
2018-02-06T16:41:23.312Z,81.90
2018-02-06T16:44:03.620Z,82.70
2018-02-06T16:46:43.602Z,82.60
2018-02-06T16:49:23.024Z,83.10
2018-02-06T16:52:04.012Z,84.20
2018-02-06T16:54:40.070Z,84.20
2018-02-06T16:57:14.883Z,85.10
2018-02-06T16:59:53.850Z,85.20
2018-02-06T17:02:40.627Z,86.00
2018-02-06T17:05:16.390Z,86.00
2018-02-06T17:07:50.104Z,86.50
2018-02-06T17:10:23.950Z,86.90
2018-02-06T17:12:57.750Z,87.30
2018-02-06T17:15:31.570Z,88.70
2018-02-06T17:18:05.427Z,88.40
2018-02-06T17:20:39.284Z,89.00
2018-02-06T17:23:13.847Z,89.30
2018-02-06T17:25:47.886Z,90.00
2018-02-06T17:28:21.529Z,90.10
2018-02-06T17:30:56.079Z,90.50
2018-02-06T17:33:30.105Z,90.50
2018-02-06T17:36:04.330Z,90.70
2018-02-06T17:38:38.132Z,90.90
2018-02-06T17:41:11.889Z,90.90
2018-02-06T17:43:45.748Z,90.80
2018-02-06T17:46:19.539Z,91.10
2018-02-06T17:48:53.344Z,91.00
2018-02-06T17:51:27.179Z,91.10
2018-02-06T17:54:01.756Z,91.20
2018-02-06T17:56:35.533Z,91.20
2018-02-06T17:59:09.348Z,91.20
2018-02-06T18:01:43.094Z,91.30
2018-02-06T18:04:16.820Z,91.40
2018-02-06T18:06:50.652Z,91.50
2018-02-06T18:09:25.232Z,91.40
2018-02-06T18:11:59.131Z,91.40
2018-02-06T18:14:32.933Z,91.50
2018-02-06T18:17:10.334Z,91.50
2018-02-06T18:19:43.946Z,91.40
2018-02-06T18:22:18.448Z,91.80
2018-02-06T18:24:52.275Z,91.80
2018-02-06T18:27:26.953Z,92.00
2018-02-06T18:30:00.560Z,91.90
2018-02-06T18:32:34.332Z,92.00
2018-02-06T18:35:08.219Z,91.80
2018-02-06T18:37:42.948Z,91.70
2018-02-06T18:40:16.936Z,91.70
2018-02-06T18:42:50.760Z,91.60
2018-02-06T18:45:25.552Z,91.60
2018-02-06T18:47:59.418Z,91.30
2018-02-06T18:50:33.218Z,91.50
2018-02-06T18:53:07.111Z,91.50
2018-02-06T18:55:40.919Z,91.60
2018-02-06T18:58:14.771Z,91.90
2018-02-06T19:00:49.236Z,91.80
2018-02-06T19:03:23.104Z,91.80
2018-02-06T19:05:58.689Z,91.90
2018-02-06T19:08:32.726Z,92.00
2018-02-06T19:11:07.318Z,92.10
2018-02-06T19:13:41.968Z,92.00
2018-02-06T19:16:15.820Z,92.00
2018-02-06T19:18:49.624Z,92.10
2018-02-06T19:21:23.392Z,91.50
2018-02-06T19:23:57.507Z,90.80
2018-02-06T19:26:31.998Z,90.50
2018-02-06T19:29:05.910Z,90.50
2018-02-06T19:31:39.754Z,90.50
2018-02-06T19:34:13.469Z,90.20
2018-02-06T19:36:48.037Z,90.40
2018-02-06T19:39:21.994Z,90.40
2018-02-06T19:41:55.738Z,90.80
2018-02-06T19:44:31.524Z,90.30
2018-02-06T19:47:06.191Z,90.10
2018-02-06T19:49:40.199Z,90.00
2018-02-06T19:52:13.987Z,90.10
2018-02-06T19:54:48.476Z,90.40
2018-02-06T19:57:22.315Z,90.40
2018-02-06T19:59:58.861Z,90.50
2018-02-06T20:02:32.556Z,90.50
2018-02-06T20:05:06.297Z,90.60
2018-02-06T20:07:40.179Z,90.80
2018-02-06T20:10:14.684Z,91.00
2018-02-06T20:12:48.538Z,90.90
2018-02-06T20:15:27.071Z,91.10
2018-02-06T20:18:01.641Z,91.20
2018-02-06T20:20:36.247Z,91.40
2018-02-06T20:23:10.046Z,91.30
2018-02-06T20:25:43.826Z,91.40
2018-02-06T20:28:17.719Z,91.50
2018-02-06T20:30:52.348Z,91.40
2018-02-06T20:33:26.128Z,91.40
2018-02-06T20:36:00.803Z,91.60
2018-02-06T20:38:35.434Z,91.70
2018-02-06T20:41:09.400Z,91.70
2018-02-06T20:43:43.008Z,91.90
2018-02-06T20:46:17.634Z,92.10
2018-02-06T20:48:52.067Z,92.20
2018-02-06T20:51:25.863Z,92.10
2018-02-06T20:54:00.461Z,92.30
2018-02-06T20:56:34.199Z,92.30
2018-02-06T20:59:08.075Z,92.30
2018-02-06T21:01:41.930Z,92.20
2018-02-06T21:04:15.786Z,92.30
2018-02-06T21:06:50.375Z,92.40
2018-02-06T21:09:24.382Z,92.40
2018-02-06T21:11:58.585Z,92.50
2018-02-06T21:14:33.199Z,92.60
2018-02-06T21:17:07.030Z,92.60
2018-02-06T21:19:40.774Z,92.90
2018-02-06T21:22:14.607Z,92.60
2018-02-06T21:24:48.374Z,92.60
2018-02-06T21:27:22.163Z,92.60
2018-02-06T21:29:55.954Z,92.60
2018-02-06T21:32:30.516Z,92.80
2018-02-06T21:35:04.432Z,92.80
2018-02-06T21:37:39.802Z,92.80
2018-02-06T21:40:13.845Z,92.80
2018-02-06T21:42:48.560Z,92.90
2018-02-06T21:45:22.380Z,92.90
2018-02-06T21:47:56.166Z,93.00
2018-02-06T21:50:30.023Z,92.90
2018-02-06T21:53:03.691Z,92.80
2018-02-06T21:55:37.423Z,92.80
2018-02-06T21:58:11.264Z,92.80
